createdAt,value
2023-01-06T00:00:23.050Z,100292.84
2023-01-06T00:02:55.048Z,100236.72
2023-01-06T00:05:27.089Z,100281.75
2023-01-06T00:07:59.680Z,100283.84
2023-01-06T00:10:31.673Z,100288.28
2023-01-06T00:13:03.725Z,100310.97
2023-01-06T00:15:37.844Z,100316.50
2023-01-06T00:18:09.921Z,100318.31
2023-01-06T00:20:41.950Z,100288.06
2023-01-06T00:23:13.857Z,100282.91
2023-01-06T00:25:52.436Z,100349.34
2023-01-06T00:28:24.448Z,100318.78
2023-01-06T00:30:56.682Z,100349.94
2023-01-06T00:33:29.744Z,100320.78
2023-01-06T00:36:02.068Z,100333.88
2023-01-06T00:38:36.647Z,100358.84
2023-01-06T00:41:31.402Z,100348.63
2023-01-06T00:44:03.381Z,100357.50
2023-01-06T00:46:35.853Z,100368.13
2023-01-06T00:49:08.098Z,100370.03
2023-01-06T00:51:41.118Z,100392.16
2023-01-06T00:54:14.412Z,100398.00
2023-01-06T00:56:48.430Z,100405.56
2023-01-06T00:59:24.243Z,100415.81
2023-01-06T01:01:58.017Z,100415.31
2023-01-06T01:04:30.135Z,100412.88
2023-01-06T01:07:02.169Z,100432.19
2023-01-06T01:09:34.153Z,100396.38
2023-01-06T01:12:15.065Z,100412.19
2023-01-06T01:14:49.838Z,100415.78
2023-01-06T01:17:32.356Z,100412.47
2023-01-06T01:20:04.551Z,100405.84
2023-01-06T01:22:36.544Z,100426.31
2023-01-06T01:25:08.985Z,100435.34
2023-01-06T01:27:40.985Z,100433.22
2023-01-06T01:30:13.041Z,100450.50
2023-01-06T01:32:44.990Z,100456.22
2023-01-06T01:35:16.999Z,100421.72
2023-01-06T01:37:49.083Z,100455.22
2023-01-06T01:40:21.069Z,100443.28
2023-01-06T01:42:53.178Z,100442.31
2023-01-06T01:45:29.957Z,100453.88
2023-01-06T01:48:14.325Z,100480.94
2023-01-06T01:50:50.185Z,100464.41
2023-01-06T01:53:27.088Z,100452.84
2023-01-06T01:56:02.941Z,100485.88
2023-01-06T01:58:54.430Z,100473.84
2023-01-06T02:01:27.111Z,100494.56
2023-01-06T02:04:01.528Z,100494.03
2023-01-06T02:06:33.597Z,100498.09
2023-01-06T02:09:37.329Z,100514.25
2023-01-06T02:12:09.656Z,100483.22
2023-01-06T02:14:41.559Z,100511.94
2023-01-06T02:17:19.469Z,100515.34
2023-01-06T02:20:22.576Z,100542.25
2023-01-06T02:23:16.140Z,100547.91
2023-01-06T02:26:10.742Z,100552.03
2023-01-06T02:28:57.773Z,100553.91
2023-01-06T02:31:52.289Z,100553.06
2023-01-06T02:34:53.534Z,100564.31
2023-01-06T02:37:48.400Z,100567.34
2023-01-06T02:40:45.816Z,100561.00
2023-01-06T02:43:38.206Z,100581.16
2023-01-06T02:46:28.442Z,100602.69
2023-01-06T02:49:27.384Z,100580.13
2023-01-06T02:52:03.190Z,100594.44
2023-01-06T02:54:54.320Z,100605.06
2023-01-06T02:57:50.595Z,100619.34
2023-01-06T03:00:36.234Z,100625.56
2023-01-06T03:03:15.824Z,100609.09
2023-01-06T03:05:52.439Z,100611.88
2023-01-06T03:08:30.871Z,100619.03
2023-01-06T03:11:03.621Z,100627.44
2023-01-06T03:13:37.872Z,100630.09
2023-01-06T03:16:10.101Z,100578.50
2023-01-06T03:18:43.969Z,100626.34
2023-01-06T03:21:20.210Z,100599.50
2023-01-06T03:23:53.379Z,100617.28
2023-01-06T03:26:26.783Z,100621.38
2023-01-06T03:28:59.969Z,100632.13
2023-01-06T03:32:04.049Z,100647.78
2023-01-06T03:34:57.211Z,100654.69
2023-01-06T03:37:36.885Z,100664.72
2023-01-06T03:40:29.107Z,100666.38
2023-01-06T03:43:13.670Z,100657.75
2023-01-06T03:46:04.379Z,100661.78
2023-01-06T03:49:18.982Z,100678.00
2023-01-06T03:52:13.537Z,100685.72
2023-01-06T03:54:58.177Z,100685.34
2023-01-06T03:57:37.190Z,100670.59
2023-01-06T04:00:21.251Z,100674.59
2023-01-06T04:02:56.360Z,100671.00
2023-01-06T04:05:29.471Z,100698.25
2023-01-06T04:08:01.425Z,100708.34
2023-01-06T04:10:33.413Z,100688.22
2023-01-06T04:13:05.401Z,100690.72
2023-01-06T04:15:37.387Z,100697.41
2023-01-06T04:18:09.535Z,100701.63
2023-01-06T04:20:41.540Z,100684.16
2023-01-06T04:23:13.617Z,100689.81
2023-01-06T04:25:45.568Z,100686.75
2023-01-06T04:28:17.465Z,100673.22
2023-01-06T04:30:49.384Z,100657.13
2023-01-06T04:33:21.318Z,100696.59
2023-01-06T04:35:53.282Z,100660.50
2023-01-06T04:38:25.220Z,100674.63
2023-01-06T04:40:57.192Z,100689.81
2023-01-06T04:43:29.211Z,100701.50
2023-01-06T04:46:01.404Z,100677.97
2023-01-06T04:48:33.357Z,100706.69
2023-01-06T04:51:08.143Z,100705.78
2023-01-06T04:53:41.789Z,100720.22
2023-01-06T04:56:14.282Z,100718.78
2023-01-06T04:58:46.275Z,100715.06
2023-01-06T05:01:18.289Z,100706.19
2023-01-06T05:03:50.454Z,100732.03
2023-01-06T05:06:22.455Z,100688.22
2023-01-06T05:08:54.439Z,100698.28
2023-01-06T05:11:27.157Z,100702.59
2023-01-06T05:13:59.170Z,100699.91
2023-01-06T05:16:33.689Z,100735.16
2023-01-06T05:19:05.723Z,100723.41
2023-01-06T05:21:37.679Z,100703.03
2023-01-06T05:24:10.330Z,100689.78
2023-01-06T05:26:42.263Z,100718.53
2023-01-06T05:29:17.611Z,100735.66
2023-01-06T05:31:49.642Z,100719.06
2023-01-06T05:34:21.598Z,100711.84
2023-01-06T05:36:53.643Z,100673.22
2023-01-06T05:39:25.644Z,100729.47
2023-01-06T05:41:57.624Z,100734.84
2023-01-06T05:44:29.443Z,100732.16
2023-01-06T05:47:02.032Z,100736.94
2023-01-06T05:49:33.938Z,100731.22
2023-01-06T05:52:05.884Z,100742.16
2023-01-06T05:54:37.801Z,100719.47
2023-01-06T05:57:11.290Z,100738.47
2023-01-06T05:59:43.287Z,100732.13
2023-01-06T06:02:15.330Z,100760.31
2023-01-06T06:04:48.037Z,100713.13
2023-01-06T06:07:19.984Z,100752.78
2023-01-06T06:09:51.878Z,100746.75
2023-01-06T06:12:23.830Z,100769.34
2023-01-06T06:14:55.778Z,100770.41
2023-01-06T06:17:27.849Z,100768.47
2023-01-06T06:19:59.860Z,100777.34
2023-01-06T06:22:32.001Z,100781.44
2023-01-06T06:25:04.028Z,100795.31
2023-01-06T06:27:36.015Z,100788.84
2023-01-06T06:30:08.497Z,100776.72
2023-01-06T06:32:40.437Z,100801.16
2023-01-06T06:35:12.406Z,100801.56
2023-01-06T06:37:44.261Z,100788.94
2023-01-06T06:40:16.282Z,100804.91
2023-01-06T06:42:52.081Z,100798.03
2023-01-06T06:45:24.347Z,100821.84
2023-01-06T06:47:56.387Z,100821.38
2023-01-06T06:50:28.319Z,100793.69
2023-01-06T06:53:00.247Z,100811.22
2023-01-06T06:55:33.203Z,100833.72
2023-01-06T06:58:05.165Z,100832.72
2023-01-06T07:00:37.136Z,100835.84
2023-01-06T07:03:09.101Z,100821.59
2023-01-06T07:05:44.119Z,100848.59
2023-01-06T07:08:16.339Z,100850.41
2023-01-06T07:10:48.341Z,100850.97
2023-01-06T07:13:20.300Z,100835.34
2023-01-06T07:15:52.412Z,100842.38
2023-01-06T07:18:24.447Z,100836.28
2023-01-06T07:20:56.765Z,100846.34
2023-01-06T07:23:28.955Z,100865.88
2023-01-06T07:26:02.937Z,100875.00
2023-01-06T07:28:34.962Z,100867.78
2023-01-06T07:31:06.969Z,100868.66
2023-01-06T07:33:38.976Z,100883.00
2023-01-06T07:36:10.914Z,100872.88
2023-01-06T07:38:42.823Z,100874.53
2023-01-06T07:41:14.897Z,100875.44
2023-01-06T07:43:46.815Z,100882.97
2023-01-06T07:46:18.986Z,100851.72
2023-01-06T07:48:50.919Z,100878.09
2023-01-06T07:51:22.871Z,100891.66
2023-01-06T07:53:54.906Z,100900.66
2023-01-06T07:56:26.901Z,100891.16
2023-01-06T07:58:58.839Z,100879.91
2023-01-06T08:01:30.918Z,100869.78
2023-01-06T08:04:02.925Z,100852.81
2023-01-06T08:06:34.918Z,100877.94
2023-01-06T08:09:06.892Z,100861.19
2023-01-06T08:11:39.587Z,100889.53
2023-01-06T08:14:12.767Z,100898.50
2023-01-06T08:16:44.733Z,100894.84
2023-01-06T08:19:16.774Z,100870.38
2023-01-06T08:21:48.716Z,100892.28
2023-01-06T08:24:20.667Z,100874.56
2023-01-06T08:26:53.009Z,100894.25
2023-01-06T08:29:26.051Z,100900.34
2023-01-06T08:32:09.909Z,100902.19
2023-01-06T08:34:42.500Z,100904.03
2023-01-06T08:37:14.467Z,100896.97
2023-01-06T08:39:46.405Z,100921.38
2023-01-06T08:42:18.722Z,100919.97
2023-01-06T08:44:50.689Z,100930.06
2023-01-06T08:47:22.707Z,100937.53
2023-01-06T08:49:54.544Z,100941.88
2023-01-06T08:52:26.548Z,100942.56
2023-01-06T08:55:00.242Z,100922.03
2023-01-06T08:57:32.233Z,100928.44
2023-01-06T09:00:06.756Z,100909.91
2023-01-06T09:02:38.710Z,100955.22
2023-01-06T09:05:10.714Z,100948.59
2023-01-06T09:07:42.601Z,100943.38
2023-01-06T09:10:14.535Z,100933.03
2023-01-06T09:12:46.667Z,100880.03
2023-01-06T09:15:18.877Z,100943.22
2023-01-06T09:17:50.863Z,100901.09
2023-01-06T09:20:22.866Z,100919.53
2023-01-06T09:22:54.843Z,100932.03
2023-01-06T09:25:26.798Z,100920.22
2023-01-06T09:27:59.524Z,100904.31
2023-01-06T09:30:31.467Z,100894.22
2023-01-06T09:33:03.409Z,100869.59
2023-01-06T09:35:35.345Z,100922.78
2023-01-06T09:38:07.787Z,100930.16
2023-01-06T09:41:16.806Z,100928.59
2023-01-06T09:43:54.140Z,100926.75
2023-01-06T09:46:30.876Z,100924.06
2023-01-06T09:49:39.010Z,100934.19
2023-01-06T09:52:35.250Z,100917.41
2023-01-06T09:55:18.466Z,100904.13
2023-01-06T09:58:01.359Z,100892.44
2023-01-06T10:00:41.957Z,100929.25
2023-01-06T10:03:21.399Z,100932.56
2023-01-06T10:06:08.071Z,100924.50
2023-01-06T10:09:07.552Z,100901.75
2023-01-06T10:11:58.128Z,100915.97
2023-01-06T10:14:53.225Z,100914.34
2023-01-06T10:17:50.680Z,100907.63
2023-01-06T10:20:53.717Z,100902.38
2023-01-06T10:23:25.645Z,100908.16
2023-01-06T10:26:13.407Z,100886.44
2023-01-06T10:28:57.035Z,100866.13
2023-01-06T10:31:35.524Z,100835.84
2023-01-06T10:34:22.010Z,100851.63
2023-01-06T10:37:12.860Z,100878.91
2023-01-06T10:39:47.343Z,100891.94
2023-01-06T10:42:57.765Z,100885.78
2023-01-06T10:45:44.677Z,100888.34
2023-01-06T10:48:25.020Z,100868.81
2023-01-06T10:50:58.029Z,100834.44
2023-01-06T10:53:30.584Z,100838.44
2023-01-06T10:56:04.579Z,100859.63
2023-01-06T10:58:50.980Z,100847.16
2023-01-06T11:01:25.094Z,100877.78
2023-01-06T11:04:12.447Z,100859.22
2023-01-06T11:06:54.546Z,100861.53
2023-01-06T11:09:45.565Z,100864.66
2023-01-06T11:12:23.606Z,100863.47
2023-01-06T11:15:01.105Z,100851.69
2023-01-06T11:17:33.331Z,100855.72
2023-01-06T11:20:09.552Z,100850.47
2023-01-06T11:22:42.676Z,100846.97
2023-01-06T11:25:20.816Z,100856.53
2023-01-06T11:28:21.645Z,100852.09
2023-01-06T11:30:58.900Z,100844.59
2023-01-06T11:33:33.428Z,100850.19
2023-01-06T11:36:13.816Z,100833.59
2023-01-06T11:38:50.197Z,100854.91
2023-01-06T11:41:29.430Z,100845.13
2023-01-06T11:44:34.548Z,100838.97
2023-01-06T11:47:16.625Z,100811.22
2023-01-06T11:49:53.103Z,100830.72
2023-01-06T11:52:27.487Z,100822.41
2023-01-06T11:55:02.860Z,100825.66
2023-01-06T11:57:59.087Z,100819.63
2023-01-06T12:00:54.012Z,100808.47
2023-01-06T12:03:42.742Z,100805.72
2023-01-06T12:06:14.681Z,100815.00
2023-01-06T12:09:17.990Z,100820.06
2023-01-06T12:11:52.796Z,100810.84
2023-01-06T12:14:30.002Z,100822.59
2023-01-06T12:17:05.644Z,100823.34
2023-01-06T12:19:43.561Z,100825.31
2023-01-06T12:22:53.052Z,100828.13
2023-01-06T12:25:39.821Z,100823.00
2023-01-06T12:28:31.655Z,100819.88
2023-01-06T12:31:24.658Z,100812.28
2023-01-06T12:34:32.367Z,100807.59
2023-01-06T12:37:07.453Z,100815.91
2023-01-06T12:39:54.352Z,100808.66
2023-01-06T12:42:44.714Z,100802.59
2023-01-06T12:45:37.861Z,100782.19
2023-01-06T12:48:18.601Z,100796.56
2023-01-06T12:50:58.667Z,100799.78
2023-01-06T12:53:40.331Z,100787.13
2023-01-06T12:56:39.923Z,100794.34
2023-01-06T12:59:19.769Z,100790.09
2023-01-06T13:02:02.375Z,100792.63
2023-01-06T13:05:09.408Z,100787.59
2023-01-06T13:07:53.227Z,100799.47
2023-01-06T13:10:30.993Z,100791.84
2023-01-06T13:13:44.961Z,100791.13
2023-01-06T13:16:26.184Z,100795.63
2023-01-06T13:19:20.913Z,100804.75
2023-01-06T13:21:56.659Z,100802.91
2023-01-06T13:24:50.415Z,100806.38
2023-01-06T13:27:37.671Z,100803.06
2023-01-06T13:30:34.101Z,100804.84
2023-01-06T13:33:29.415Z,100810.91
2023-01-06T13:36:47.697Z,100807.38
2023-01-06T13:39:53.221Z,100796.50
2023-01-06T13:42:55.004Z,100799.03
2023-01-06T13:45:34.598Z,100787.13
2023-01-06T13:48:10.776Z,100785.59
2023-01-06T13:50:43.717Z,100756.22
2023-01-06T13:53:22.279Z,100760.50
2023-01-06T13:56:30.520Z,100778.94
2023-01-06T13:59:25.488Z,100766.25
2023-01-06T14:02:00.056Z,100716.69
2023-01-06T14:04:42.842Z,100743.56
2023-01-06T14:07:15.529Z,100713.31
2023-01-06T14:09:50.262Z,100705.78
2023-01-06T14:12:24.443Z,100709.78
2023-01-06T14:15:06.763Z,100709.97
2023-01-06T14:17:44.606Z,100716.78
2023-01-06T14:20:38.183Z,100710.75
2023-01-06T14:23:18.910Z,100721.53
2023-01-06T14:25:54.629Z,100689.81
2023-01-06T14:28:33.792Z,100717.91
2023-01-06T14:31:27.479Z,100715.81
2023-01-06T14:34:02.791Z,100712.03
2023-01-06T14:36:36.343Z,100700.25
2023-01-06T14:39:18.489Z,100690.84
2023-01-06T14:42:03.116Z,100718.56
2023-01-06T14:44:44.679Z,100739.50
2023-01-06T14:47:49.222Z,100734.31
2023-01-06T14:50:38.298Z,100732.31
2023-01-06T14:53:32.844Z,100745.44
2023-01-06T14:56:07.229Z,100755.31
2023-01-06T14:58:39.219Z,100716.75
2023-01-06T15:01:30.719Z,100731.78
2023-01-06T15:04:04.740Z,100750.03
2023-01-06T15:06:36.705Z,100757.69
2023-01-06T15:09:19.779Z,100755.19
2023-01-06T15:11:51.982Z,100726.72
2023-01-06T15:14:29.973Z,100757.69
2023-01-06T15:17:05.666Z,100752.00
2023-01-06T15:19:37.923Z,100724.75
2023-01-06T15:22:11.220Z,100729.75
2023-01-06T15:24:43.641Z,100725.84
2023-01-06T15:27:18.136Z,100733.13
2023-01-06T15:29:55.083Z,100702.97
2023-01-06T15:32:28.012Z,100715.28
2023-01-06T15:35:00.460Z,100680.69
2023-01-06T15:37:35.257Z,100698.34
2023-01-06T15:40:08.448Z,100680.03
2023-01-06T15:42:41.137Z,100704.34
2023-01-06T15:45:29.204Z,100691.50
2023-01-06T15:48:09.644Z,100627.56
2023-01-06T15:50:41.863Z,100669.59
2023-01-06T15:53:25.049Z,100679.81
2023-01-06T15:55:57.014Z,100634.38
2023-01-06T15:58:39.942Z,100680.84
2023-01-06T16:01:17.473Z,100664.63
2023-01-06T16:04:02.319Z,100669.94
2023-01-06T16:06:39.369Z,100684.44
2023-01-06T16:09:20.165Z,100671.72
2023-01-06T16:12:07.263Z,100681.09
2023-01-06T16:14:47.387Z,100670.91
2023-01-06T16:17:41.168Z,100669.22
2023-01-06T16:20:24.746Z,100675.00
2023-01-06T16:22:56.961Z,100665.75
2023-01-06T16:25:32.630Z,100675.72
2023-01-06T16:28:05.885Z,100652.69
2023-01-06T16:30:38.504Z,100646.75
2023-01-06T16:33:35.257Z,100625.94
2023-01-06T16:36:25.679Z,100623.06
2023-01-06T16:38:57.667Z,100630.13
2023-01-06T16:41:29.762Z,100643.75
2023-01-06T16:44:01.814Z,100642.69
2023-01-06T16:46:33.836Z,100624.19
2023-01-06T16:49:10.774Z,100633.94
2023-01-06T16:51:45.773Z,100637.44
2023-01-06T16:54:19.063Z,100634.81
2023-01-06T16:56:52.597Z,100579.53
2023-01-06T16:59:36.368Z,100608.88
2023-01-06T17:02:15.053Z,100609.44
2023-01-06T17:04:47.674Z,100599.31
2023-01-06T17:07:19.795Z,100586.00
2023-01-06T17:09:51.798Z,100601.78
2023-01-06T17:12:53.095Z,100600.69
2023-01-06T17:15:25.289Z,100596.78
2023-01-06T17:17:57.442Z,100591.69
2023-01-06T17:20:32.124Z,100594.91
2023-01-06T17:23:05.614Z,100572.34
2023-01-06T17:25:37.574Z,100572.41
2023-01-06T17:28:22.607Z,100589.13
2023-01-06T17:30:54.608Z,100563.16
2023-01-06T17:33:29.083Z,100555.59
2023-01-06T17:36:03.257Z,100566.78
2023-01-06T17:38:35.348Z,100541.09
2023-01-06T17:41:10.598Z,100568.38
2023-01-06T17:43:42.695Z,100560.34
2023-01-06T17:46:37.036Z,100578.63
2023-01-06T17:49:31.059Z,100571.16
2023-01-06T17:52:15.323Z,100556.00
2023-01-06T17:55:16.520Z,100554.00
2023-01-06T17:57:48.870Z,100487.56
2023-01-06T18:00:24.824Z,100547.25
2023-01-06T18:03:01.420Z,100565.81
2023-01-06T18:05:33.937Z,100572.41
2023-01-06T18:08:05.932Z,100565.97
2023-01-06T18:10:43.889Z,100563.47
2023-01-06T18:13:20.596Z,100565.75
2023-01-06T18:15:56.846Z,100568.38
2023-01-06T18:18:38.831Z,100565.72
2023-01-06T18:21:34.994Z,100549.75
2023-01-06T18:24:22.682Z,100551.38
2023-01-06T18:27:13.464Z,100545.34
2023-01-06T18:29:46.007Z,100538.88
2023-01-06T18:32:20.756Z,100545.34
2023-01-06T18:34:57.689Z,100509.03
2023-01-06T18:37:35.779Z,100469.38
2023-01-06T18:40:32.310Z,100520.47
2023-01-06T18:43:24.321Z,100514.72
2023-01-06T18:46:01.334Z,100515.41
2023-01-06T18:48:34.588Z,100520.53
2023-01-06T18:51:23.720Z,100510.94
2023-01-06T18:53:57.653Z,100508.66
2023-01-06T18:56:29.703Z,100454.34
2023-01-06T18:59:01.651Z,100503.28
2023-01-06T19:01:46.708Z,100506.31
2023-01-06T19:04:22.657Z,100506.06
2023-01-06T19:06:57.569Z,100501.88
2023-01-06T19:09:40.593Z,100494.25
2023-01-06T19:12:32.911Z,100463.00
2023-01-06T19:15:26.488Z,100481.63
2023-01-06T19:17:58.389Z,100437.28
2023-01-06T19:20:35.396Z,100455.59
2023-01-06T19:23:24.827Z,100454.56
2023-01-06T19:26:17.493Z,100461.97
2023-01-06T19:28:57.333Z,100457.03
2023-01-06T19:31:30.927Z,100449.41
2023-01-06T19:34:04.451Z,100455.88
2023-01-06T19:36:42.269Z,100463.16
2023-01-06T19:39:25.582Z,100449.66
2023-01-06T19:42:23.989Z,100474.81
2023-01-06T19:45:00.956Z,100465.56
2023-01-06T19:47:39.416Z,100445.31
2023-01-06T19:50:23.383Z,100459.50
2023-01-06T19:53:00.420Z,100451.13
2023-01-06T19:55:33.609Z,100451.47
2023-01-06T19:58:15.914Z,100456.38
2023-01-06T20:00:52.778Z,100449.56
2023-01-06T20:03:36.686Z,100448.63
2023-01-06T20:06:08.667Z,100442.91
2023-01-06T20:08:41.816Z,100427.63
2023-01-06T20:11:13.802Z,100443.00
2023-01-06T20:13:45.759Z,100441.78
2023-01-06T20:16:17.832Z,100408.38
2023-01-06T20:18:50.850Z,100437.63
2023-01-06T20:21:22.825Z,100443.34
2023-01-06T20:23:54.978Z,100433.34
2023-01-06T20:26:26.960Z,100428.06
2023-01-06T20:28:58.835Z,100436.84
2023-01-06T20:31:31.612Z,100426.31
2023-01-06T20:34:03.842Z,100426.94
2023-01-06T20:36:35.782Z,100412.28
2023-01-06T20:39:07.712Z,100429.00
2023-01-06T20:41:39.671Z,100412.84
2023-01-06T20:44:13.451Z,100424.66
2023-01-06T20:46:45.448Z,100409.63
2023-01-06T20:49:20.774Z,100400.28
2023-01-06T20:51:53.032Z,100406.97
2023-01-06T20:54:25.059Z,100397.78
2023-01-06T20:56:57.339Z,100420.34
2023-01-06T20:59:29.290Z,100422.84
2023-01-06T21:02:01.544Z,100433.06
2023-01-06T21:04:34.452Z,100432.91
2023-01-06T21:07:07.235Z,100430.47
2023-01-06T21:09:39.158Z,100427.13
2023-01-06T21:12:11.100Z,100444.63
2023-01-06T21:14:43.120Z,100427.84
2023-01-06T21:17:15.080Z,100425.34
2023-01-06T21:19:48.784Z,100449.59
2023-01-06T21:22:20.695Z,100428.66
2023-01-06T21:24:52.930Z,100450.44
2023-01-06T21:27:24.911Z,100432.78
2023-01-06T21:29:56.865Z,100417.53
2023-01-06T21:32:28.877Z,100454.59
2023-01-06T21:35:00.852Z,100458.81
2023-01-06T21:37:32.851Z,100437.03
2023-01-06T21:40:08.827Z,100433.59
2023-01-06T21:42:59.836Z,100449.38
2023-01-06T21:45:31.810Z,100434.41
2023-01-06T21:48:04.551Z,100452.03
2023-01-06T21:50:44.494Z,100453.28
2023-01-06T21:53:16.636Z,100423.75
2023-01-06T21:55:48.566Z,100430.03
2023-01-06T21:58:21.697Z,100451.78
2023-01-06T22:00:53.718Z,100445.97
2023-01-06T22:03:25.720Z,100446.34
2023-01-06T22:05:58.578Z,100456.44
2023-01-06T22:08:31.849Z,100430.53
2023-01-06T22:11:04.731Z,100440.22
2023-01-06T22:13:36.733Z,100431.19
2023-01-06T22:16:09.496Z,100419.34
2023-01-06T22:18:41.753Z,100442.78
2023-01-06T22:21:13.764Z,100433.50
2023-01-06T22:23:45.765Z,100420.75
2023-01-06T22:26:17.711Z,100427.84
2023-01-06T22:28:50.037Z,100448.88
2023-01-06T22:31:23.925Z,100451.63
2023-01-06T22:33:55.956Z,100457.44
2023-01-06T22:36:28.136Z,100444.94
2023-01-06T22:39:00.102Z,100453.28
2023-01-06T22:41:32.048Z,100459.13
2023-01-06T22:44:04.064Z,100429.06
2023-01-06T22:46:36.033Z,100426.34
2023-01-06T22:49:08.039Z,100444.81
2023-01-06T22:51:40.026Z,100461.66
2023-01-06T22:54:12.047Z,100393.06
2023-01-06T22:56:44.020Z,100435.03
2023-01-06T22:59:15.990Z,100440.91
2023-01-06T23:01:48.032Z,100436.56
2023-01-06T23:04:20.088Z,100443.84
2023-01-06T23:06:52.071Z,100448.25
2023-01-06T23:09:24.039Z,100456.50
2023-01-06T23:11:56.023Z,100422.94
2023-01-06T23:14:27.990Z,100444.13
2023-01-06T23:16:59.988Z,100460.97
2023-01-06T23:19:31.860Z,100460.91
2023-01-06T23:22:03.795Z,100451.91
2023-01-06T23:24:35.719Z,100479.81
2023-01-06T23:27:07.676Z,100477.28
2023-01-06T23:29:39.708Z,100474.72
2023-01-06T23:32:11.617Z,100489.91
2023-01-06T23:34:43.550Z,100483.97
2023-01-06T23:37:15.560Z,100447.25
2023-01-06T23:39:48.312Z,100485.78
2023-01-06T23:42:20.291Z,100501.66
2023-01-06T23:44:52.234Z,100499.16
2023-01-06T23:47:24.243Z,100492.50
2023-01-06T23:49:56.168Z,100482.50
2023-01-06T23:52:28.120Z,100475.75
2023-01-06T23:55:00.050Z,100508.69
2023-01-06T23:57:31.994Z,100470.75
